Terminal Aerodrome Forecast
Issued by NWS Wichita, KS

Home | Current Version | Previous Version | Graphics & Text | Print | Product List | Glossary On
Versions: 1 2 3 4 5 6 7 8 9 10 11 12 13 14
000
FTUS43 KICT 280520
TAFICT
TAF
KICT 280520Z 2806/2906 16008KT P6SM FEW080
     FM280900 19008KT P6SM SCT080
     FM281500 24012G20KT P6SM SCT060
     FM282200 26011G21KT P6SM VCTS BKN060CB
     FM290300 36011KT P6SM SCT100 SCT250=

USA.gov is the U.S. government's official web portal to all federal, state and local government web resources and services.